Time,TemperatureF,DewpointF,PressureIn,WindDirection,WindDirectionDegrees,WindSpeedMPH,WindSpeedGustMPH,Humidity,HourlyPrecipIn,Conditions,Clouds,dailyrainin,SolarRadiationWatts/m^2,SoftwareType,DateUTC
2013-06-23 06:39:00,75.4,58.6,29.79,SE,135,10.5,11.0,56,0.00,,---,0.00,0.00,VWS V14.01,2013-06-23 11:39:00,
2013-06-23 06:40:00,75.4,58.6,29.79,SE,135,6.5,10.5,56,0.00,,---,0.00,0.00,VWS V14.01,2013-06-23 11:40:00,
2013-06-23 06:41:00,75.4,58.6,29.79,SE,135,6.5,6.5,56,0.00,,---,0.00,0.00,VWS V14.01,2013-06-23 11:41:00,
2013-06-23 06:42:00,75.4,58.6,29.79,SSE,158,9.8,14.8,56,0.00,,---,0.00,0.00,VWS V14.01,2013-06-23 11:42:00,
2013-06-23 06:45:00,75.4,58.6,29.79,South,180,8.1,8.1,56,0.00,,---,0.00,0.00,VWS V14.01,2013-06-23 11:45:00,
2013-06-23 06:51:00,75.7,58.4,29.76,South,180,11.0,11.0,55,0.00,,---,0.00,0.00,VWS V14.01,2013-06-23 11:51:00,
2013-06-23 06:56:00,75.7,58.4,29.76,SSE,158,12.8,12.8,55,0.00,,---,0.00,0.00,VWS V14.01,2013-06-23 11:56:00,
2013-06-23 07:01:00,75.9,58.1,29.76,SSW,202,10.5,10.5,54,0.00,,---,0.00,0.00,VWS V14.01,2013-06-23 12:01:00,
2013-06-23 07:07:00,76.1,58.3,29.76,SSW,202,7.2,7.2,54,0.00,,---,0.00,0.00,VWS V14.01,2013-06-23 12:07:00,
2013-06-23 07:13:00,76.3,57.9,29.76,South,180,6.5,10.3,53,0.00,,---,0.00,0.00,VWS V14.01,2013-06-23 12:13:00,
2013-06-23 07:19:00,76.3,57.9,29.79,South,180,6.0,10.1,53,0.00,,---,0.00,0.00,VWS V14.01,2013-06-23 12:19:00,
2013-06-23 07:25:00,76.3,57.9,29.82,South,180,4.3,7.4,53,0.00,,---,0.00,0.00,VWS V14.01,2013-06-23 12:25:00,
2013-06-23 07:30:00,76.5,57.5,29.82,South,180,13.0,13.0,52,0.00,,---,0.00,0.00,VWS V14.01,2013-06-23 12:30:00,
2013-06-23 07:36:00,76.6,57.7,29.82,SSE,158,7.6,7.6,52,0.00,,---,0.00,0.00,VWS V14.01,2013-06-23 12:36:00,
2013-06-23 07:42:00,76.8,57.9,29.82,SSE,158,2.7,2.7,52,0.00,,---,0.00,0.00,VWS V14.01,2013-06-23 12:42:00,
2013-06-23 07:47:00,77.0,57.5,29.82,SSW,202,6.0,11.0,51,0.00,,---,0.00,0.00,VWS V14.01,2013-06-23 12:47:00,
2013-06-23 07:52:00,77.0,57.5,29.82,SSW,202,9.8,9.8,51,0.00,,---,0.00,0.00,VWS V14.01,2013-06-23 12:52:00,
2013-06-23 07:58:00,77.0,57.5,29.82,SSE,158,7.4,7.4,51,0.00,,---,0.00,0.00,VWS V14.01,2013-06-23 12:58:00,
2013-06-23 08:03:00,77.2,57.7,29.82,SSW,202,8.1,8.1,51,0.00,,---,0.00,0.00,VWS V14.01,2013-06-23 13:03:00,
2013-06-23 08:09:00,77.2,57.1,29.82,SW,225,5.8,5.8,50,0.00,,---,0.00,0.00,VWS V14.01,2013-06-23 13:09:00,
2013-06-23 08:14:00,77.2,57.1,29.82,SSW,202,6.5,6.5,50,0.00,,---,0.00,0.00,VWS V14.01,2013-06-23 13:14:00,
2013-06-23 08:20:00,77.2,56.6,29.85,South,180,8.7,8.7,49,0.00,,---,0.00,0.00,VWS V14.01,2013-06-23 13:20:00,
2013-06-23 08:26:00,77.2,56.6,29.85,WSW,248,4.9,6.5,49,0.00,,---,0.00,0.00,VWS V14.01,2013-06-23 13:26:00,
2013-06-23 08:31:00,77.2,56.6,29.85,WSW,248,4.9,4.9,49,0.00,,---,0.00,0.00,VWS V14.01,2013-06-23 13:31:00,
2013-06-23 08:37:00,77.2,56.6,29.85,SSW,202,5.6,5.6,49,0.00,,---,0.00,0.00,VWS V14.01,2013-06-23 13:37:00,
2013-06-23 08:43:00,77.2,57.1,29.85,NW,315,9.8,9.8,50,0.00,,---,0.00,0.00,VWS V14.01,2013-06-23 13:43:00,
2013-06-23 08:48:00,77.2,57.7,29.85,WNW,292,4.3,4.3,51,0.00,,---,0.00,0.00,VWS V14.01,2013-06-23 13:48:00,
2013-06-23 08:54:00,77.2,58.2,29.85,West,270,5.6,6.5,52,0.00,,---,0.00,0.00,VWS V14.01,2013-06-23 13:54:00,
2013-06-23 09:00:00,77.2,58.2,29.88,West,270,5.6,5.8,52,0.00,,---,6.31,0.00,VWS V14.01,2013-06-23 14:00:00,
2013-06-23 09:05:00,77.2,57.7,29.88,WNW,292,7.6,7.6,51,0.00,,---,6.31,0.00,VWS V14.01,2013-06-23 14:05:00,
2013-06-23 09:11:00,77.2,57.7,29.88,WNW,292,6.0,7.2,51,0.00,,---,6.31,0.00,VWS V14.01,2013-06-23 14:11:00,
2013-06-23 09:16:00,77.2,57.7,29.88,WNW,292,6.0,6.0,51,0.00,,---,6.31,0.00,VWS V14.01,2013-06-23 14:16:00,
2013-06-23 09:21:00,77.0,58.0,29.91,NW,315,12.1,12.1,52,0.00,,---,6.31,0.00,VWS V14.01,2013-06-23 14:21:00,
2013-06-23 09:26:00,77.0,58.0,29.91,North,0,10.3,10.3,52,0.00,,---,6.31,0.00,VWS V14.01,2013-06-23 14:26:00,
2013-06-23 09:32:00,73.4,50.2,29.91,North,0,8.5,8.5,44,0.00,,---,6.31,0.00,VWS V14.01,2013-06-23 14:32:00,
2013-06-23 09:37:00,72.7,49.5,29.91,NNW,338,5.4,8.5,44,0.00,,---,6.31,0.00,VWS V14.01,2013-06-23 14:37:00,
2013-06-23 09:43:00,72.1,49.7,29.91,NNW,338,5.4,5.4,45,0.00,,---,6.31,0.00,VWS V14.01,2013-06-23 14:43:00,
2013-06-23 09:48:00,71.8,49.3,29.91,NNE,22,6.0,6.0,45,0.00,,---,6.31,0.00,VWS V14.01,2013-06-23 14:48:00,
2013-06-23 09:54:00,71.2,49.4,29.91,NNE,22,6.3,6.3,46,0.00,,---,6.31,0.00,VWS V14.01,2013-06-23 14:54:00,
2013-06-23 10:00:00,70.9,49.7,29.91,NNE,22,2.9,4.9,47,0.00,,---,6.31,0.00,VWS V14.01,2013-06-23 15:00:00,
2013-06-23 10:05:00,70.9,49.7,29.88,NNE,22,3.4,3.4,47,0.00,,---,6.31,0.00,VWS V14.01,2013-06-23 15:05:00,
2013-06-23 10:10:00,70.9,49.7,29.88,NNE,22,6.0,6.0,47,0.00,,---,6.31,0.00,VWS V14.01,2013-06-23 15:10:00,
2013-06-23 10:16:00,70.9,50.8,29.88,North,0,2.0,2.0,49,0.00,,---,6.31,0.00,VWS V14.01,2013-06-23 15:16:00,
2013-06-23 10:21:00,71.2,50.6,29.91,NE,45,3.8,3.8,48,0.00,,---,6.31,0.00,VWS V14.01,2013-06-23 15:21:00,
2013-06-23 10:26:00,71.2,50.6,29.91,NNE,22,2.7,2.9,48,0.00,,---,6.31,0.00,VWS V14.01,2013-06-23 15:26:00,
2013-06-23 10:32:00,71.2,50.6,29.91,NE,45,4.3,4.3,48,0.00,,---,6.31,0.00,VWS V14.01,2013-06-23 15:32:00,
2013-06-23 10:37:00,70.9,50.2,29.91,NNE,22,1.3,3.6,48,0.00,,---,6.31,0.00,VWS V14.01,2013-06-23 15:37:00,
2013-06-23 10:43:00,70.5,49.9,29.88,ENE,68,4.7,6.7,48,0.00,,---,6.31,0.00,VWS V14.01,2013-06-23 15:43:00,
2013-06-23 10:48:00,70.5,49.9,29.88,East,90,6.3,6.3,48,0.00,,---,6.31,0.00,VWS V14.01,2013-06-23 15:48:00,
2013-06-23 10:54:00,70.0,50.0,29.91,ENE,68,3.4,3.8,49,0.00,,---,6.31,0.00,VWS V14.01,2013-06-23 15:54:00,
2013-06-23 10:59:00,69.8,49.8,29.91,NNE,22,0.0,1.3,49,0.00,,---,6.31,0.00,VWS V14.01,2013-06-23 15:59:00,
2013-06-23 11:04:00,69.8,49.8,29.91,ENE,68,4.3,4.3,49,0.00,,---,6.31,0.00,VWS V14.01,2013-06-23 16:04:00,
2013-06-23 11:09:00,69.3,50.4,29.91,ENE,68,5.4,5.4,51,0.00,,---,6.31,0.00,VWS V14.01,2013-06-23 16:09:00,
2013-06-23 11:15:00,69.3,50.4,29.91,East,90,2.0,4.5,51,0.00,,---,6.31,0.00,VWS V14.01,2013-06-23 16:15:00,
2013-06-23 11:21:00,68.5,50.8,29.91,East,90,4.0,4.0,53,0.00,,---,6.31,0.00,VWS V14.01,2013-06-23 16:21:00,
2013-06-23 11:27:00,68.4,50.6,29.91,East,90,3.4,3.4,53,0.00,,---,6.31,0.00,VWS V14.01,2013-06-23 16:27:00,
2013-06-23 11:33:00,68.4,51.1,29.91,East,90,6.3,6.5,54,0.00,,---,6.31,0.00,VWS V14.01,2013-06-23 16:33:00,
2013-06-23 11:39:00,68.2,51.9,29.91,East,90,5.6,5.6,56,0.00,,---,6.31,0.00,VWS V14.01,2013-06-23 16:39:00,
2013-06-23 11:44:00,68.0,53.2,29.91,ENE,68,6.0,6.0,59,0.00,,---,6.31,0.00,VWS V14.01,2013-06-23 16:44:00,
2013-06-23 11:49:00,68.0,54.1,29.91,East,90,6.3,6.3,61,0.00,,---,6.31,0.00,VWS V14.01,2013-06-23 16:49:00,
2013-06-23 11:54:00,68.0,54.1,29.91,ENE,68,8.7,8.7,61,0.00,,---,6.31,0.00,VWS V14.01,2013-06-23 16:54:00,
2013-06-23 11:57:00,68.0,54.5,29.91,SSE,158,6.0,8.7,62,0.00,,---,6.31,0.00,VWS V14.01,2013-06-23 16:57:00,
2013-06-23 11:58:00,68.0,54.5,29.91,ESE,112,9.2,9.2,62,0.00,,---,6.31,0.00,VWS V14.01,2013-06-23 16:58:00,
2013-06-23 12:02:00,68.0,54.5,29.91,ESE,112,9.2,9.2,62,0.00,,---,6.31,0.00,VWS V14.01,2013-06-23 17:02:00,
2013-06-23 12:04:00,67.8,54.8,29.91,ENE,68,18.8,18.8,63,0.00,,---,6.31,0.00,VWS V14.01,2013-06-23 17:04:00,
2013-06-23 12:09:00,68.0,55.4,29.91,NE,45,4.7,5.6,64,0.00,,---,6.31,0.00,VWS V14.01,2013-06-23 17:09:00,
2013-06-23 12:15:00,68.0,55.4,29.91,ESE,112,6.9,6.9,64,0.00,,---,6.31,0.00,VWS V14.01,2013-06-23 17:15:00,
2013-06-23 12:21:00,68.4,55.7,29.91,South,180,4.0,6.5,64,0.00,,---,6.31,0.00,VWS V14.01,2013-06-23 17:21:00,
2013-06-23 12:27:00,68.4,55.7,29.88,SSE,158,5.4,5.4,64,0.00,,---,6.31,0.00,VWS V14.01,2013-06-23 17:27:00,
2013-06-23 12:32:00,68.7,56.1,29.88,South,180,9.2,9.2,64,0.00,,---,6.31,0.00,VWS V14.01,2013-06-23 17:32:00,
2013-06-23 12:38:00,68.7,56.5,29.94,SSE,158,5.4,7.8,65,0.04,,---,6.35,0.00,VWS V14.01,2013-06-23 17:38:00,
2013-06-23 12:44:00,68.5,56.3,29.94,SSE,158,19.2,19.2,65,0.04,,---,6.35,0.00,VWS V14.01,2013-06-23 17:44:00,
2013-06-23 12:49:00,68.2,56.8,29.94,SSE,158,11.4,15.4,67,0.17,,---,6.48,0.00,VWS V14.01,2013-06-23 17:49:00,
2013-06-23 12:54:00,68.4,57.8,29.85,SSE,158,12.5,12.5,69,0.17,,---,6.48,0.00,VWS V14.01,2013-06-23 17:54:00,
2013-06-23 13:00:00,68.9,59.1,29.85,SSE,158,13.2,14.1,71,0.17,,---,6.48,0.00,VWS V14.01,2013-06-23 18:00:00,
2013-06-23 13:07:00,70.0,63.9,29.85,SSW,202,15.9,15.9,81,0.17,,---,6.48,0.00,VWS V14.01,2013-06-23 18:07:00,
2013-06-23 13:13:00,70.5,63.7,29.85,SSE,158,13.9,17.0,79,0.17,,---,6.48,0.00,VWS V14.01,2013-06-23 18:13:00,
2013-06-23 13:18:00,70.5,63.7,29.85,SSE,158,23.9,23.9,79,0.17,,---,6.48,0.00,VWS V14.01,2013-06-23 18:18:00,
2013-06-23 13:23:00,70.9,61.0,29.76,SSE,158,15.2,19.9,71,0.17,,---,6.48,0.00,VWS V14.01,2013-06-23 18:23:00,
2013-06-23 13:29:00,71.1,62.0,29.76,SSE,158,18.8,18.8,73,0.17,,---,6.48,0.00,VWS V14.01,2013-06-23 18:29:00,
2013-06-23 13:35:00,71.2,61.8,29.76,ESE,112,22.8,22.8,72,0.17,,---,6.48,0.00,VWS V14.01,2013-06-23 18:35:00,
2013-06-23 13:41:00,71.8,61.1,29.71,SE,135,5.8,10.3,69,0.13,,---,6.48,0.00,VWS V14.01,2013-06-23 18:41:00,
2013-06-23 13:46:00,71.8,61.1,29.71,ESE,112,18.8,18.8,69,0.13,,---,6.48,0.00,VWS V14.01,2013-06-23 18:46:00,
2013-06-23 13:52:00,71.8,61.1,29.76,South,180,4.9,4.9,69,0.00,,---,6.48,0.00,VWS V14.01,2013-06-23 18:52:00,
2013-06-23 13:58:00,72.5,60.9,29.76,SE,135,7.4,7.4,67,0.00,,---,6.48,0.00,VWS V14.01,2013-06-23 18:58:00,
2013-06-23 14:03:00,72.9,60.4,29.76,SE,135,8.7,8.7,65,0.00,,---,6.48,0.00,VWS V14.01,2013-06-23 19:03:00,
2013-06-23 14:08:00,73.0,59.7,29.76,SE,135,7.4,7.4,63,0.00,,---,6.48,0.00,VWS V14.01,2013-06-23 19:08:00,
2013-06-23 14:14:00,73.4,60.0,29.76,SE,135,7.4,7.6,63,0.00,,---,6.48,0.00,VWS V14.01,2013-06-23 19:14:00,
2013-06-23 14:20:00,73.4,60.0,29.76,SE,135,7.4,7.4,63,0.00,,---,6.48,0.00,VWS V14.01,2013-06-23 19:20:00,
2013-06-23 14:26:00,74.1,60.3,24.57,SSE,158,7.4,7.4,62,0.00,,---,6.48,0.00,VWS V14.01,2013-06-23 19:26:00,
2013-06-23 14:31:00,74.8,61.0,24.57,SSE,158,6.5,6.5,62,0.00,,---,6.48,0.00,VWS V14.01,2013-06-23 19:31:00,
2013-06-23 14:37:00,75.9,62.0,29.79,South,180,1.1,2.7,62,0.00,,---,6.48,0.00,VWS V14.01,2013-06-23 19:37:00,
2013-06-23 14:42:00,76.8,62.4,29.79,NW,315,10.7,10.7,61,0.00,,---,6.48,0.00,VWS V14.01,2013-06-23 19:42:00,
2013-06-23 14:48:00,76.8,62.4,29.79,North,0,16.6,16.6,61,0.00,,---,6.48,0.00,VWS V14.01,2013-06-23 19:48:00,
2013-06-23 14:54:00,76.6,59.3,29.82,WNW,292,10.7,10.7,55,0.00,,---,6.48,0.00,VWS V14.01,2013-06-23 19:54:00,
2013-06-23 14:59:00,77.5,58.5,29.82,NNW,338,8.1,10.7,52,0.00,,---,6.48,0.00,VWS V14.01,2013-06-23 19:59:00,
2013-06-23 15:04:00,77.5,57.5,29.82,NNW,338,5.4,6.7,50,0.00,,---,6.48,0.00,VWS V14.01,2013-06-23 20:04:00,
2013-06-23 15:10:00,77.7,58.2,29.85,NNE,22,3.8,3.8,51,0.00,,---,6.48,0.00,VWS V14.01,2013-06-23 20:10:00,
2013-06-23 15:19:00,77.7,56.5,0.00,North,0,7.6,7.6,48,0.00,,---,6.48,0.00,VWS V14.01,2013-06-23 20:19:00,
2013-06-23 15:24:00,77.4,56.2,29.85,NNW,338,4.3,4.7,48,0.00,,---,6.48,0.00,VWS V14.01,2013-06-23 20:24:00,
2013-06-23 15:29:00,77.4,56.2,29.85,NNW,338,3.6,4.0,48,0.00,,---,6.48,0.00,VWS V14.01,2013-06-23 20:29:00,
2013-06-23 15:34:00,77.4,55.6,29.85,North,0,6.3,6.3,47,0.00,,---,6.48,0.00,VWS V14.01,2013-06-23 20:34:00,
2013-06-23 15:41:00,77.7,55.9,29.85,ENE,68,3.8,4.0,47,0.00,,---,6.48,0.00,VWS V14.01,2013-06-23 20:41:00,
2013-06-23 15:46:00,77.7,55.9,29.85,NNE,22,4.9,4.9,47,0.00,,---,6.48,0.00,VWS V14.01,2013-06-23 20:46:00,
2013-06-23 15:53:00,79.0,56.5,29.85,NE,45,5.6,5.6,46,0.00,,---,6.48,0.00,VWS V14.01,2013-06-23 20:53:00,
2013-06-23 15:59:00,79.0,55.8,29.85,NNE,22,3.6,3.6,45,0.00,,---,6.48,0.00,VWS V14.01,2013-06-23 20:59:00,
2013-06-23 16:05:00,79.0,55.8,29.85,NNE,22,4.9,5.4,45,0.00,,---,6.48,0.00,VWS V14.01,2013-06-23 21:05:00,
2013-06-23 16:11:00,79.0,55.8,29.85,ENE,68,3.6,3.6,45,0.00,,---,6.48,0.00,VWS V14.01,2013-06-23 21:11:00,
2013-06-23 16:17:00,79.0,55.8,29.85,NE,45,4.7,4.7,45,0.00,,---,6.48,0.00,VWS V14.01,2013-06-23 21:17:00,
2013-06-23 16:22:00,78.8,55.1,29.85,NE,45,6.5,6.5,44,0.00,,---,6.48,0.00,VWS V14.01,2013-06-23 21:22:00,
2013-06-23 16:28:00,79.2,56.6,29.85,ENE,68,5.6,5.6,46,0.00,,---,6.48,0.00,VWS V14.01,2013-06-23 21:28:00,
2013-06-23 16:33:00,79.2,56.6,29.85,North,0,2.9,5.6,46,0.00,,---,6.48,0.00,VWS V14.01,2013-06-23 21:33:00,
2013-06-23 16:39:00,79.0,56.5,29.85,NNE,22,4.9,4.9,46,0.00,,---,6.48,0.00,VWS V14.01,2013-06-23 21:39:00,
2013-06-23 16:45:00,78.6,56.1,29.85,NE,45,1.6,4.0,46,0.00,,---,6.48,0.00,VWS V14.01,2013-06-23 21:45:00,
2013-06-23 16:50:00,78.3,56.4,29.85,ENE,68,4.3,4.3,47,0.00,,---,6.48,0.00,VWS V14.01,2013-06-23 21:50:00,
2013-06-23 16:55:00,78.3,56.4,29.85,East,90,2.5,2.5,47,0.00,,---,6.48,0.00,VWS V14.01,2013-06-23 21:55:00,
2013-06-23 17:02:00,0.0,0.0,29.85,East,90,4.7,4.7,0,0.00,,---,6.48,0.00,VWS V14.01,2013-06-23 22:02:00,
2013-06-23 17:08:00,77.7,57.1,29.85,East,90,2.9,2.9,49,0.00,,---,6.48,0.00,VWS V14.01,2013-06-23 22:08:00,
2013-06-23 17:13:00,78.1,58.0,29.85,East,90,0.9,3.8,50,0.00,,---,6.48,0.00,VWS V14.01,2013-06-23 22:13:00,
2013-06-23 17:18:00,78.8,58.6,29.85,NNE,22,2.0,3.1,50,0.00,,---,6.48,0.00,VWS V14.01,2013-06-23 22:18:00,
2013-06-23 17:24:00,79.0,58.2,29.85,ENE,68,6.5,9.0,49,0.00,,---,6.48,0.00,VWS V14.01,2013-06-23 22:24:00,
2013-06-23 17:29:00,79.0,57.6,29.85,SE,135,6.5,8.5,48,0.00,,---,6.48,0.00,VWS V14.01,2013-06-23 22:29:00,
2013-06-23 17:35:00,78.6,57.9,29.85,SE,135,4.3,4.3,49,0.00,,---,6.48,0.00,VWS V14.01,2013-06-23 22:35:00,
2013-06-23 17:40:00,78.6,57.3,29.85,East,90,4.7,7.2,48,0.00,,---,6.48,0.00,VWS V14.01,2013-06-23 22:40:00,
2013-06-23 17:45:00,78.8,57.5,29.85,ESE,112,1.6,4.3,48,0.00,,---,6.48,0.00,VWS V14.01,2013-06-23 22:45:00,
2013-06-23 17:51:00,78.8,57.5,29.85,ENE,68,3.6,5.4,48,0.00,,---,6.48,0.00,VWS V14.01,2013-06-23 22:51:00,
2013-06-23 17:57:00,79.0,58.2,29.82,ESE,112,3.6,3.6,49,0.00,,---,6.48,0.00,VWS V14.01,2013-06-23 22:57:00,
2013-06-23 18:02:00,79.5,58.1,29.82,East,90,2.9,4.3,48,0.00,,---,6.48,0.00,VWS V14.01,2013-06-23 23:02:00,
2013-06-23 18:07:00,79.5,58.1,29.79,NE,45,1.3,2.7,48,0.00,,---,6.48,0.00,VWS V14.01,2013-06-23 23:07:00,
2013-06-23 18:13:00,79.5,57.5,29.79,East,90,0.0,3.4,47,0.00,,---,6.48,0.00,VWS V14.01,2013-06-23 23:13:00,
2013-06-23 18:19:00,79.5,57.5,29.79,ESE,112,3.1,3.1,47,0.00,,---,6.48,0.00,VWS V14.01,2013-06-23 23:19:00,
2013-06-23 18:24:00,79.5,57.5,29.79,ESE,112,2.7,2.7,47,0.00,,---,6.48,0.00,VWS V14.01,2013-06-23 23:24:00,
2013-06-23 18:30:00,80.4,59.0,29.79,ESE,112,1.6,2.2,48,0.00,,---,6.48,0.00,VWS V14.01,2013-06-23 23:30:00,
2013-06-23 18:35:00,80.6,58.5,29.79,East,90,5.8,5.8,47,0.00,,---,6.48,0.00,VWS V14.01,2013-06-23 23:35:00,
2013-06-23 18:40:00,80.6,58.5,29.79,ESE,112,6.3,6.3,47,0.00,,---,6.48,0.00,VWS V14.01,2013-06-23 23:40:00,
2013-06-23 18:46:00,80.6,58.5,29.79,ENE,68,6.3,6.3,47,0.00,,---,6.48,0.00,VWS V14.01,2013-06-23 23:46:00,
2013-06-23 18:52:00,80.2,57.6,29.79,ENE,68,3.4,5.6,46,0.00,,---,6.48,0.00,VWS V14.01,2013-06-23 23:52:00,
2013-06-23 18:58:00,80.2,57.6,29.79,ESE,112,2.7,6.3,46,0.00,,---,6.48,0.00,VWS V14.01,2013-06-23 23:58:00,
2013-06-23 19:03:00,80.2,57.6,29.79,ESE,112,3.4,3.4,46,0.00,,---,6.48,0.00,VWS V14.01,2013-06-24 00:03:00,
2013-06-23 19:09:00,80.1,58.0,29.79,ESE,112,5.6,5.6,47,0.00,,---,6.48,0.00,VWS V14.01,2013-06-24 00:09:00,
2013-06-23 19:14:00,79.7,57.7,29.79,ESE,112,4.7,6.7,47,0.00,,---,6.48,0.00,VWS V14.01,2013-06-24 00:14:00,
2013-06-23 19:19:00,79.5,57.5,29.79,ESE,112,3.6,4.3,47,0.00,,---,6.48,0.00,VWS V14.01,2013-06-24 00:19:00,
2013-06-23 19:25:00,79.2,57.8,29.79,ESE,112,6.3,6.3,48,0.00,,---,6.48,0.00,VWS V14.01,2013-06-24 00:25:00,
2013-06-23 19:30:00,79.0,57.6,29.79,ESE,112,4.9,4.9,48,0.00,,---,6.48,0.00,VWS V14.01,2013-06-24 00:30:00,
2013-06-23 19:36:00,79.0,57.6,29.82,ESE,112,5.8,7.8,48,0.00,,---,6.48,0.00,VWS V14.01,2013-06-24 00:36:00,
2013-06-23 19:42:00,78.3,57.5,29.82,ESE,112,3.4,6.3,49,0.00,,---,6.48,0.00,VWS V14.01,2013-06-24 00:42:00,
2013-06-23 19:48:00,78.3,57.5,29.82,ESE,112,3.6,3.6,49,0.00,,---,6.48,0.00,VWS V14.01,2013-06-24 00:48:00,
2013-06-23 19:53:00,77.2,57.7,29.85,East,90,5.4,6.3,51,0.00,,---,6.48,0.00,VWS V14.01,2013-06-24 00:53:00,
2013-06-23 19:59:00,76.6,58.2,29.85,ESE,112,9.6,9.6,53,0.00,,---,6.48,0.00,VWS V14.01,2013-06-24 00:59:00,
2013-06-23 20:05:00,76.5,59.1,29.85,East,90,6.3,6.9,55,0.00,,---,6.48,0.00,VWS V14.01,2013-06-24 01:05:00,
2013-06-23 20:11:00,76.5,59.1,29.85,ESE,112,5.8,6.3,55,0.00,,---,6.48,0.00,VWS V14.01,2013-06-24 01:11:00,
2013-06-23 20:17:00,75.9,59.1,29.85,ESE,112,4.9,7.4,56,0.00,,---,6.48,0.00,VWS V14.01,2013-06-24 01:17:00,
2013-06-23 20:23:00,75.9,59.1,29.85,SE,135,6.5,6.5,56,0.00,,---,6.48,0.00,VWS V14.01,2013-06-24 01:23:00,
2013-06-23 20:28:00,75.9,59.1,29.85,SE,135,6.5,6.5,56,0.00,,---,6.48,0.00,VWS V14.01,2013-06-24 01:28:00,
2013-06-23 20:34:00,75.6,59.8,29.85,SSE,158,3.6,5.4,58,0.00,,---,6.48,0.00,VWS V14.01,2013-06-24 01:34:00,
2013-06-23 20:39:00,75.4,60.1,29.85,ESE,112,4.3,4.3,59,0.00,,---,6.48,0.00,VWS V14.01,2013-06-24 01:39:00,
2013-06-23 20:44:00,75.4,60.1,29.85,ESE,112,4.5,4.5,59,0.00,,---,6.48,0.00,VWS V14.01,2013-06-24 01:44:00,
2013-06-23 20:50:00,75.2,60.4,29.85,ESE,112,4.3,4.3,60,0.00,,---,6.48,0.00,VWS V14.01,2013-06-24 01:50:00,
2013-06-23 20:55:00,75.2,60.4,29.85,ESE,112,2.5,3.6,60,0.00,,---,6.48,0.00,VWS V14.01,2013-06-24 01:55:00,
2013-06-23 21:01:00,75.0,60.7,29.85,ESE,112,3.1,4.0,61,0.00,,---,6.48,0.00,VWS V14.01,2013-06-24 02:01:00,
2013-06-23 21:06:00,75.0,60.7,29.85,ESE,112,2.9,2.9,61,0.00,,---,6.48,0.00,VWS V14.01,2013-06-24 02:06:00,
2013-06-23 21:12:00,74.8,60.5,29.85,SE,135,2.9,2.9,61,0.00,,---,6.48,0.00,VWS V14.01,2013-06-24 02:12:00,
2013-06-23 21:17:00,74.8,61.0,29.85,SE,135,1.6,1.6,62,0.00,,---,6.48,0.00,VWS V14.01,2013-06-24 02:17:00,
2013-06-23 21:23:00,74.8,61.0,29.85,SE,135,2.2,2.2,62,0.00,,---,6.48,0.00,VWS V14.01,2013-06-24 02:23:00,
2013-06-23 21:29:00,74.8,61.0,29.85,SE,135,2.2,2.2,62,0.00,,---,6.48,0.00,VWS V14.01,2013-06-24 02:29:00,
2013-06-23 21:34:00,74.7,60.8,29.85,ESE,112,2.5,2.7,62,0.00,,---,6.48,0.00,VWS V14.01,2013-06-24 02:34:00,
2013-06-23 21:40:00,74.7,60.8,29.85,SSE,158,3.4,3.4,62,0.00,,---,6.48,0.00,VWS V14.01,2013-06-24 02:40:00,
2013-06-23 21:46:00,74.8,61.0,29.85,SE,135,0.0,0.0,62,0.00,,---,6.48,0.00,VWS V14.01,2013-06-24 02:46:00,
2013-06-23 21:52:00,74.8,61.0,29.85,SSE,158,3.6,3.6,62,0.00,,---,6.48,0.00,VWS V14.01,2013-06-24 02:52:00,